Time;durP1;ratioP1;P1;durP2;ratioP2;P2;SDS_P1;SDS_P2;PMS_P1;PMS_P2;Temp;Humidity;BMP_temperature;BMP_pressure;BME280_temperature;BME280_humidity;BME280_pressure;Samples;Min_cycle;Max_cycle;Signal;HPM_P1;HPM_P2
2021/09/16 00:01:00;;;;;;;21.27;19.37;;;19.40;99.90;;;;;;5069958;28;20426;-51
2021/09/16 00:03:26;;;;;;;21.60;19.67;;;19.30;99.90;;;;;;5076908;28;20192;-51
2021/09/16 00:05:52;;;;;;;20.83;19.03;;;19.20;99.90;;;;;;5090770;28;21000;-54
2021/09/16 00:08:17;;;;;;;20.63;18.80;;;19.20;99.90;;;;;;5090541;28;20323;-50
2021/09/16 00:10:43;;;;;;;20.47;18.63;;;19.20;99.90;;;;;;5091090;28;20245;-52
2021/09/16 00:13:09;;;;;;;21.67;19.70;;;19.20;99.90;;;;;;5081771;28;20195;-52
2021/09/16 00:15:35;;;;;;;20.20;18.40;;;19.20;99.90;;;;;;5089830;28;20442;-51
2021/09/16 00:18:00;;;;;;;19.43;17.70;;;19.20;99.90;;;;;;5077725;28;20188;-47
2021/09/16 00:20:26;;;;;;;19.83;18.00;;;19.20;99.90;;;;;;5076487;28;20220;-56
2021/09/16 00:22:52;;;;;;;20.23;18.50;;;19.20;99.90;;;;;;5067551;28;20201;-53
2021/09/16 00:25:18;;;;;;;20.40;18.60;;;19.10;99.90;;;;;;5069142;28;20818;-48
2021/09/16 00:27:43;;;;;;;20.27;18.47;;;19.20;99.90;;;;;;5075974;28;20268;-48
2021/09/16 00:30:10;;;;;;;21.30;19.50;;;19.20;99.90;;;;;;5090791;28;20188;-49
2021/09/16 00:32:37;;;;;;;19.30;17.60;;;19.10;99.90;;;;;;5091203;28;20193;-49
2021/09/16 00:35:03;;;;;;;22.00;20.10;;;19.10;99.90;;;;;;5090450;28;20507;-50
2021/09/16 00:37:29;;;;;;;20.67;18.87;;;19.20;99.90;;;;;;5090712;28;20426;-52
2021/09/16 00:39:54;;;;;;;19.80;18.10;;;19.10;99.90;;;;;;5084851;28;20431;-49
2021/09/16 00:42:20;;;;;;;22.70;20.70;;;19.10;99.90;;;;;;5083995;28;20185;-49
2021/09/16 00:44:46;;;;;;;20.03;18.23;;;19.10;99.90;;;;;;5077306;28;20202;-51
2021/09/16 00:47:12;;;;;;;21.43;19.63;;;19.10;99.90;;;;;;5086058;28;20891;-50
2021/09/16 00:49:38;;;;;;;20.57;18.57;;;19.20;99.90;;;;;;5083364;28;20819;-50
2021/09/16 00:52:06;;;;;;;22.03;19.93;;;19.20;99.90;;;;;;5080457;28;20427;-49
2021/09/16 00:54:32;;;;;;;20.90;19.00;;;19.10;99.90;;;;;;5090178;28;20414;-50
2021/09/16 00:57:00;;;;;;;21.07;19.07;;;19.10;99.90;;;;;;5089228;28;20446;-57
2021/09/16 00:59:26;;;;;;;20.50;18.60;;;19.10;99.90;;;;;;5075903;28;20434;-47
2021/09/16 01:01:52;;;;;;;20.60;18.70;;;19.10;99.90;;;;;;5069976;28;20420;-48
2021/09/16 01:04:17;;;;;;;21.27;19.37;;;19.00;99.90;;;;;;5068328;28;20462;-49
2021/09/16 01:06:43;;;;;;;21.60;19.70;;;19.00;99.90;;;;;;5069782;28;20182;-49
2021/09/16 01:09:12;;;;;;;20.67;18.87;;;19.00;99.90;;;;;;5068805;28;20201;-49
2021/09/16 01:11:38;;;;;;;20.57;18.80;;;19.00;99.90;;;;;;5074240;28;20177;-48
2021/09/16 01:14:03;;;;;;;20.93;19.07;;;19.00;99.90;;;;;;5083861;28;20962;-47
2021/09/16 01:16:29;;;;;;;19.70;17.90;;;19.10;99.90;;;;;;5069453;28;20193;-53
2021/09/16 01:18:55;;;;;;;20.10;18.20;;;19.10;99.90;;;;;;5069748;28;20265;-52
2021/09/16 01:21:21;;;;;;;20.37;18.53;;;19.10;99.90;;;;;;5069577;28;20643;-51
2021/09/16 01:23:48;;;;;;;19.63;17.93;;;19.20;99.90;;;;;;5068050;28;20231;-49
2021/09/16 01:26:14;;;;;;;19.47;17.80;;;19.20;99.90;;;;;;5076537;28;20455;-55
2021/09/16 01:28:40;;;;;;;20.20;18.50;;;19.20;99.90;;;;;;5089665;28;20461;-49
2021/09/16 01:31:05;;;;;;;20.00;18.20;;;19.20;99.90;;;;;;5089916;28;20539;-48
2021/09/16 01:33:31;;;;;;;20.03;18.43;;;19.20;99.90;;;;;;5074770;28;20190;-53
2021/09/16 01:35:56;;;;;;;18.93;17.30;;;19.20;99.90;;;;;;5067561;28;20192;-52
2021/09/16 01:38:22;;;;;;;20.37;18.57;;;19.20;99.90;;;;;;5076137;28;20177;-49
2021/09/16 01:40:47;;;;;;;18.73;17.03;;;19.20;99.90;;;;;;5056087;28;20578;-50
2021/09/16 01:43:15;;;;;;;18.93;17.30;;;19.20;99.90;;;;;;5068675;28;20312;-49
2021/09/16 01:45:41;;;;;;;19.57;17.87;;;19.20;99.90;;;;;;5056146;28;20208;-48
2021/09/16 01:48:06;;;;;;;18.73;17.03;;;19.20;99.90;;;;;;5069594;28;20412;-53
2021/09/16 01:50:32;;;;;;;18.27;16.67;;;19.30;99.90;;;;;;5071393;28;21021;-48
2021/09/16 01:52:58;;;;;;;19.53;17.80;;;19.30;99.90;;;;;;5077959;28;20243;-49
2021/09/16 01:55:24;;;;;;;17.17;15.67;;;19.30;99.90;;;;;;5067673;28;20420;-49
2021/09/16 01:57:49;;;;;;;17.50;16.00;;;19.30;99.90;;;;;;5069278;28;20196;-51
2021/09/16 02:00:15;;;;;;;16.80;15.40;;;19.30;99.90;;;;;;5068584;28;20245;-50
2021/09/16 02:02:42;;;;;;;17.33;15.73;;;19.30;99.90;;;;;;5083223;28;20185;-52
2021/09/16 02:05:08;;;;;;;17.73;16.23;;;19.30;99.90;;;;;;5073867;28;20289;-50
2021/09/16 02:07:34;;;;;;;16.53;15.17;;;19.40;99.90;;;;;;5077486;28;20420;-51
2021/09/16 02:10:00;;;;;;;17.20;15.80;;;19.40;99.90;;;;;;5088270;28;20756;-56
2021/09/16 02:12:25;;;;;;;16.90;15.40;;;19.40;99.90;;;;;;5087578;28;20184;-56
2021/09/16 02:14:51;;;;;;;16.67;15.17;;;19.40;99.90;;;;;;5069710;28;20431;-54
2021/09/16 02:17:17;;;;;;;17.70;16.00;;;19.40;99.90;;;;;;5068654;28;20525;-50
2021/09/16 02:19:43;;;;;;;17.17;15.67;;;19.40;99.90;;;;;;5057331;28;20438;-52
2021/09/16 02:22:09;;;;;;;15.00;13.70;;;19.50;99.90;;;;;;5068169;28;20194;-53
2021/09/16 02:24:34;;;;;;;17.13;15.63;;;19.50;99.90;;;;;;5092619;28;21018;-53
2021/09/16 02:27:00;;;;;;;15.20;13.90;;;19.50;99.90;;;;;;5089043;28;20181;-53
2021/09/16 02:29:25;;;;;;;16.03;14.57;;;19.50;99.90;;;;;;5093116;28;20177;-53
2021/09/16 02:31:51;;;;;;;15.60;14.30;;;19.50;99.90;;;;;;5090314;28;20192;-51
2021/09/16 02:34:17;;;;;;;16.10;14.70;;;19.50;99.90;;;;;;5070578;28;20546;-50
2021/09/16 02:36:42;;;;;;;16.40;15.00;;;19.50;99.90;;;;;;5072644;28;20261;-53
2021/09/16 02:39:08;;;;;;;17.00;15.00;;;19.30;99.90;;;;;;5071767;28;20299;-51
2021/09/16 02:41:34;;;;;;;16.50;15.07;;;19.40;99.90;;;;;;5072465;28;20200;-50
2021/09/16 02:43:59;;;;;;;16.23;14.83;;;19.40;99.90;;;;;;5071765;28;20233;-50
2021/09/16 02:46:25;;;;;;;15.30;13.90;;;19.40;99.90;;;;;;5072490;28;20222;-49
2021/09/16 02:48:51;;;;;;;15.27;13.97;;;19.50;99.90;;;;;;5078239;28;20207;-53
2021/09/16 02:51:16;;;;;;;15.67;14.30;;;19.50;99.90;;;;;;5092664;28;20181;-50
2021/09/16 02:53:42;;;;;;;14.97;13.57;;;19.40;99.90;;;;;;5084633;28;20439;-52
2021/09/16 02:56:07;;;;;;;17.43;15.80;;;19.40;99.90;;;;;;5086022;28;20255;-54
2021/09/16 02:58:33;;;;;;;16.83;15.33;;;19.50;99.90;;;;;;5081420;28;20937;-49
2021/09/16 03:00:59;;;;;;;15.67;14.37;;;19.60;99.90;;;;;;5074144;28;20213;-57
2021/09/16 03:03:24;;;;;;;17.10;15.60;;;19.60;99.90;;;;;;5078226;28;20655;-54
2021/09/16 03:05:50;;;;;;;15.33;13.93;;;19.50;99.90;;;;;;5084676;28;20323;-49
2021/09/16 03:08:15;;;;;;;13.80;12.70;;;19.30;99.90;;;;;;5092212;28;20271;-52
2021/09/16 03:10:41;;;;;;;11.70;10.50;;;19.40;99.90;;;;;;5092432;28;20203;-55
2021/09/16 03:13:07;;;;;;;10.30;9.30;;;19.30;99.90;;;;;;5080376;28;20248;-52
2021/09/16 03:15:32;;;;;;;9.70;8.90;;;19.20;99.90;;;;;;5092161;28;21060;-51
2021/09/16 03:17:58;;;;;;;8.93;8.13;;;19.10;99.90;;;;;;5071220;28;20257;-56
2021/09/16 03:20:24;;;;;;;9.97;9.10;;;18.90;99.90;;;;;;5070385;28;20196;-51
2021/09/16 03:22:50;;;;;;;9.37;8.47;;;18.80;99.90;;;;;;5078121;28;20330;-49
2021/09/16 03:25:15;;;;;;;9.10;8.30;;;18.80;99.90;;;;;;5088493;28;20254;-56
2021/09/16 03:27:41;;;;;;;9.03;8.33;;;18.70;99.90;;;;;;5082509;28;20469;-52
2021/09/16 03:30:11;;;;;;;9.57;8.70;;;18.60;99.90;;;;;;5085310;28;20829;-49
2021/09/16 03:32:36;;;;;;;9.07;8.30;;;18.60;99.90;;;;;;5085561;28;20267;-52
2021/09/16 03:35:02;;;;;;;9.63;8.63;;;18.50;99.90;;;;;;5070713;28;20503;-49
2021/09/16 03:37:28;;;;;;;9.50;8.70;;;18.50;99.90;;;;;;5070714;28;20203;-48
2021/09/16 03:39:54;;;;;;;9.53;8.60;;;18.50;99.90;;;;;;5083532;28;20436;-50
2021/09/16 03:42:20;;;;;;;9.97;9.07;;;18.50;99.90;;;;;;5082658;28;20196;-51
2021/09/16 03:44:45;;;;;;;9.70;8.77;;;18.50;99.90;;;;;;5058485;28;20476;-51
2021/09/16 03:47:11;;;;;;;9.27;8.43;;;18.50;99.90;;;;;;5070726;28;20186;-51
2021/09/16 03:49:40;;;;;;;10.37;9.40;;;18.40;99.90;;;;;;5071855;28;20197;-49
2021/09/16 03:52:07;;;;;;;10.13;9.17;;;18.50;99.90;;;;;;5076152;28;20252;-51
2021/09/16 03:54:33;;;;;;;9.77;8.80;;;18.40;99.90;;;;;;5091396;28;20948;-51
2021/09/16 03:56:59;;;;;;;10.57;9.47;;;18.40;99.90;;;;;;5081336;28;20438;-57
2021/09/16 03:59:25;;;;;;;10.93;9.93;;;18.40;99.90;;;;;;5071406;28;20438;-50
2021/09/16 04:01:50;;;;;;;11.30;10.30;;;18.50;99.90;;;;;;5071353;28;20419;-51
2021/09/16 04:04:16;;;;;;;11.13;10.00;;;18.40;99.90;;;;;;5070822;28;20193;-51
2021/09/16 04:06:42;;;;;;;10.63;9.53;;;18.40;99.90;;;;;;5071621;28;20284;-53
2021/09/16 04:09:07;;;;;;;11.30;10.30;;;18.40;99.90;;;;;;5070645;28;20181;-52
2021/09/16 04:11:33;;;;;;;11.17;10.07;;;18.40;99.90;;;;;;5069198;28;20243;-53
2021/09/16 04:13:58;;;;;;;11.20;10.20;;;18.40;99.90;;;;;;5068479;28;20190;-52
2021/09/16 04:16:24;;;;;;;11.87;10.60;;;18.40;99.90;;;;;;5069262;28;20557;-52
2021/09/16 04:18:49;;;;;;;12.60;10.70;;;18.40;99.90;;;;;;5081888;28;20193;-53
2021/09/16 04:21:15;;;;;;;12.03;10.83;;;18.40;99.90;;;;;;5076403;28;20192;-50
2021/09/16 04:23:40;;;;;;;12.13;10.93;;;18.40;99.90;;;;;;5069857;28;20958;-52
2021/09/16 04:26:06;;;;;;;14.07;12.60;;;18.40;99.90;;;;;;5072716;28;20221;-50
2021/09/16 04:28:32;;;;;;;12.00;10.90;;;18.40;99.90;;;;;;5064950;28;20187;-48
2021/09/16 04:30:58;;;;;;;13.53;12.23;;;18.50;99.90;;;;;;5070684;28;20541;-52
2021/09/16 04:33:23;;;;;;;12.33;11.13;;;18.50;99.90;;;;;;5075421;28;20527;-54
2021/09/16 04:35:49;;;;;;;13.17;11.93;;;18.50;99.90;;;;;;5083109;28;21044;-50
2021/09/16 04:38:15;;;;;;;12.97;11.73;;;18.50;99.90;;;;;;5077941;28;20188;-50
2021/09/16 04:40:42;;;;;;;13.23;11.77;;;18.50;99.90;;;;;;5069974;28;20184;-50
2021/09/16 04:43:08;;;;;;;11.90;10.77;;;18.50;99.90;;;;;;5067358;28;20475;-57
2021/09/16 04:45:35;;;;;;;13.57;12.20;;;18.50;99.90;;;;;;5070129;28;20504;-52
2021/09/16 04:48:00;;;;;;;12.03;10.90;;;18.50;99.90;;;;;;5069942;28;20503;-52
2021/09/16 04:50:26;;;;;;;12.37;11.17;;;18.50;99.90;;;;;;5070128;28;20503;-47
2021/09/16 04:52:52;;;;;;;11.73;10.43;;;18.60;99.90;;;;;;5070835;28;20355;-49
2021/09/16 04:55:18;;;;;;;11.47;10.47;;;18.60;99.90;;;;;;5069907;28;20189;-57
2021/09/16 04:57:43;;;;;;;12.67;11.40;;;18.60;99.90;;;;;;5067081;28;20459;-51
2021/09/16 05:00:09;;;;;;;13.43;10.97;;;18.60;99.90;;;;;;5068035;28;20216;-49
2021/09/16 05:02:35;;;;;;;12.37;10.97;;;18.60;99.90;;;;;;5082855;28;20202;-51
2021/09/16 05:05:00;;;;;;;13.23;11.93;;;18.60;99.90;;;;;;5090150;28;20666;-51
2021/09/16 05:07:26;;;;;;;14.73;12.37;;;18.60;99.90;;;;;;5070727;28;20272;-52
2021/09/16 05:09:51;;;;;;;12.80;11.50;;;18.60;99.90;;;;;;5089904;28;20240;-50
2021/09/16 05:12:17;;;;;;;12.77;11.57;;;18.60;99.90;;;;;;5089947;28;20696;-51
2021/09/16 05:14:43;;;;;;;13.60;12.20;;;18.60;99.90;;;;;;5090048;28;20192;-52
2021/09/16 05:17:08;;;;;;;13.10;11.80;;;18.70;99.90;;;;;;5072089;28;20189;-50
2021/09/16 05:19:34;;;;;;;13.90;12.47;;;18.60;99.90;;;;;;5069663;28;20736;-52
2021/09/16 05:21:59;;;;;;;13.07;11.77;;;18.70;99.90;;;;;;5060393;28;20204;-49
2021/09/16 05:24:25;;;;;;;12.80;11.60;;;18.70;99.90;;;;;;5069578;28;20239;-57
2021/09/16 05:26:50;;;;;;;14.13;12.73;;;18.60;99.90;;;;;;5081284;28;20756;-55
2021/09/16 05:29:16;;;;;;;14.23;12.87;;;18.70;99.90;;;;;;5064468;28;20495;-48
2021/09/16 05:31:42;;;;;;;13.50;12.20;;;18.70;99.90;;;;;;5061407;28;20199;-49
2021/09/16 05:34:07;;;;;;;14.43;13.03;;;18.70;99.90;;;;;;5074060;28;20204;-52
2021/09/16 05:36:33;;;;;;;14.87;13.40;;;18.70;99.90;;;;;;5089678;28;20185;-51
2021/09/16 05:38:58;;;;;;;14.10;12.60;;;18.80;99.90;;;;;;5089766;28;20278;-48
2021/09/16 05:41:24;;;;;;;13.80;12.40;;;18.80;99.90;;;;;;5084684;28;20174;-48
2021/09/16 05:43:50;;;;;;;12.80;11.60;;;18.80;99.90;;;;;;5078008;28;20319;-52
2021/09/16 05:46:16;;;;;;;13.17;11.87;;;18.70;99.90;;;;;;5088166;28;20247;-48
2021/09/16 05:48:42;;;;;;;14.23;12.73;;;18.70;99.90;;;;;;5089373;28;20901;-53
2021/09/16 05:51:07;;;;;;;12.70;11.40;;;18.80;99.90;;;;;;5081132;28;20270;-53
2021/09/16 05:53:33;;;;;;;13.70;12.30;;;18.80;99.90;;;;;;5087884;28;20708;-48
2021/09/16 05:55:58;;;;;;;13.93;12.43;;;18.80;99.90;;;;;;5072131;28;20553;-51
2021/09/16 05:58:24;;;;;;;18.47;15.30;;;18.90;99.90;;;;;;5079573;28;20186;-51
2021/09/16 06:00:49;;;;;;;15.93;14.33;;;18.90;99.90;;;;;;5079511;28;20203;-48
2021/09/16 06:03:15;;;;;;;18.20;15.40;;;18.90;99.90;;;;;;5089259;28;20216;-49
2021/09/16 06:05:41;;;;;;;17.00;14.63;;;18.90;99.90;;;;;;5074048;28;20214;-50
2021/09/16 06:08:06;;;;;;;23.97;18.30;;;18.90;99.90;;;;;;5069460;28;20181;-52
2021/09/16 06:10:32;;;;;;;19.27;16.97;;;19.00;99.90;;;;;;5067927;28;20177;-49
2021/09/16 06:12:57;;;;;;;20.53;17.87;;;18.90;99.90;;;;;;5087643;28;20263;-49
2021/09/16 06:15:23;;;;;;;23.00;19.43;;;18.90;99.90;;;;;;5082354;28;20219;-49
2021/09/16 06:17:49;;;;;;;24.73;20.20;;;18.90;99.90;;;;;;5071159;28;20264;-57
2021/09/16 06:20:14;;;;;;;23.10;19.80;;;18.90;99.90;;;;;;5079805;28;20254;-46
2021/09/16 06:22:40;;;;;;;25.17;19.70;;;18.90;99.90;;;;;;5086055;28;20589;-50
2021/09/16 06:25:07;;;;;;;23.03;20.60;;;18.90;99.90;;;;;;5088556;28;20554;-49
2021/09/16 06:27:33;;;;;;;27.17;21.73;;;18.90;99.90;;;;;;5082573;28;20188;-49
2021/09/16 06:29:59;;;;;;;29.43;24.00;;;18.90;99.90;;;;;;5080625;28;20423;-56
2021/09/16 06:32:25;;;;;;;27.80;22.90;;;19.00;99.90;;;;;;5089134;28;20414;-49
2021/09/16 06:34:50;;;;;;;30.57;23.47;;;18.90;99.90;;;;;;5088828;28;20646;-48
2021/09/16 06:37:16;;;;;;;32.40;24.43;;;18.90;99.90;;;;;;5071176;28;20200;-47
2021/09/16 06:39:43;;;;;;;33.00;24.70;;;18.90;99.90;;;;;;5068745;28;20189;-47
2021/09/16 06:42:09;;;;;;;30.93;24.50;;;18.90;99.90;;;;;;5068598;28;20412;-50
2021/09/16 06:44:34;;;;;;;32.70;25.80;;;18.90;99.90;;;;;;5067382;28;20792;-49
2021/09/16 06:47:00;;;;;;;31.73;25.43;;;18.80;99.90;;;;;;5083513;28;20181;-48
2021/09/16 06:49:25;;;;;;;33.60;26.00;;;18.80;99.90;;;;;;5084396;28;20215;-49
2021/09/16 06:51:51;;;;;;;33.00;25.87;;;18.80;99.90;;;;;;5088622;28;20184;-49
2021/09/16 06:54:16;;;;;;;33.67;26.10;;;18.70;99.90;;;;;;5069138;28;20193;-48
2021/09/16 06:56:42;;;;;;;31.27;24.80;;;18.80;99.90;;;;;;5068691;28;20928;-49
2021/09/16 06:59:08;;;;;;;32.37;25.73;;;18.70;99.90;;;;;;5075723;28;20181;-52
2021/09/16 07:01:33;;;;;;;34.33;25.70;;;18.60;99.90;;;;;;5074444;28;20276;-47
2021/09/16 07:03:59;;;;;;;30.37;24.20;;;18.70;99.90;;;;;;5088744;28;20184;-48
2021/09/16 07:06:25;;;;;;;30.70;24.90;;;18.60;99.90;;;;;;5088448;28;20219;-53
2021/09/16 07:08:52;;;;;;;33.40;25.47;;;18.70;99.90;;;;;;5088759;28;20185;-50
2021/09/16 07:11:18;;;;;;;34.70;25.60;;;18.70;99.90;;;;;;5079160;28;21005;-48
2021/09/16 07:13:43;;;;;;;32.87;26.33;;;18.80;99.90;;;;;;5092047;28;20457;-51
2021/09/16 07:16:09;;;;;;;31.70;25.60;;;18.90;99.90;;;;;;5087872;28;20917;-47
2021/09/16 07:18:34;;;;;;;29.60;25.37;;;19.00;99.90;;;;;;5062919;28;20278;-47
2021/09/16 07:21:01;;;;;;;29.90;25.40;;;19.10;99.90;;;;;;5069138;28;20197;-47
2021/09/16 07:23:26;;;;;;;29.97;24.50;;;19.10;99.90;;;;;;5071633;28;20193;-50
2021/09/16 07:25:52;;;;;;;28.23;24.47;;;19.20;99.90;;;;;;5070565;28;20463;-52
2021/09/16 07:28:17;;;;;;;31.77;25.13;;;19.30;99.90;;;;;;5067632;28;20174;-51
2021/09/16 07:30:43;;;;;;;27.87;24.83;;;19.40;99.90;;;;;;5071523;28;20182;-48
2021/09/16 07:33:08;;;;;;;28.03;24.40;;;19.40;99.90;;;;;;5063361;28;20245;-48
2021/09/16 07:35:34;;;;;;;28.33;22.93;;;19.50;99.90;;;;;;5064634;28;20205;-52
2021/09/16 07:38:00;;;;;;;29.03;23.60;;;19.60;99.90;;;;;;5066664;28;20181;-50
2021/09/16 07:40:25;;;;;;;26.57;23.17;;;19.60;99.90;;;;;;5066387;28;20291;-50
2021/09/16 07:42:51;;;;;;;26.37;23.03;;;19.60;99.90;;;;;;5062480;28;20260;-53
2021/09/16 07:45:17;;;;;;;24.10;21.50;;;19.60;99.90;;;;;;5067011;28;20977;-50
2021/09/16 07:47:42;;;;;;;25.87;23.07;;;19.60;99.90;;;;;;5072028;28;20182;-50
2021/09/16 07:50:09;;;;;;;25.50;22.03;;;19.70;99.90;;;;;;5069279;28;20527;-50
2021/09/16 07:52:34;;;;;;;25.70;23.00;;;19.80;99.90;;;;;;5069888;28;20185;-53
2021/09/16 07:55:00;;;;;;;25.03;22.40;;;19.80;99.90;;;;;;5070934;28;20420;-51
2021/09/16 07:57:25;;;;;;;25.23;21.10;;;19.90;99.90;;;;;;5069099;28;20192;-49
2021/09/16 07:59:51;;;;;;;21.80;19.50;;;20.10;99.90;;;;;;5071591;28;20200;-57
2021/09/16 08:02:17;;;;;;;21.00;18.80;;;20.20;99.90;;;;;;5069083;28;20244;-51
2021/09/16 08:04:43;;;;;;;20.40;17.40;;;20.30;99.90;;;;;;5073656;28;20702;-53
2021/09/16 08:07:08;;;;;;;22.57;18.53;;;20.30;99.90;;;;;;5068923;28;20523;-51
2021/09/16 08:09:34;;;;;;;19.67;17.70;;;20.20;99.90;;;;;;5071003;28;20313;-57
2021/09/16 08:12:00;;;;;;;21.03;18.83;;;20.00;99.90;;;;;;5067324;28;20882;-49
2021/09/16 08:14:25;;;;;;;21.20;18.63;;;19.90;99.90;;;;;;5068738;28;20247;-52
2021/09/16 08:16:51;;;;;;;21.00;17.63;;;19.80;99.90;;;;;;5066964;28;20181;-53
2021/09/16 08:19:16;;;;;;;18.83;16.83;;;19.70;99.90;;;;;;5067254;28;20261;-51
2021/09/16 08:21:42;;;;;;;16.30;14.60;;;19.70;99.90;;;;;;5067444;28;20655;-51
2021/09/16 08:24:08;;;;;;;17.93;14.27;;;19.50;99.90;;;;;;5059633;28;20189;-56
2021/09/16 08:26:33;;;;;;;13.90;12.40;;;19.30;99.90;;;;;;5066502;28;20296;-51
2021/09/16 08:28:59;;;;;;;14.97;12.70;;;19.20;99.90;;;;;;5067579;28;20192;-50
2021/09/16 08:31:25;;;;;;;13.20;11.90;;;19.20;99.90;;;;;;5066274;28;21011;-52
2021/09/16 08:33:51;;;;;;;12.67;11.37;;;19.10;99.90;;;;;;5067714;28;20197;-51
2021/09/16 08:36:17;;;;;;;14.27;10.90;;;19.00;99.90;;;;;;5066552;28;20185;-53
2021/09/16 08:38:44;;;;;;;9.90;8.93;;;18.90;99.90;;;;;;5067736;28;20954;-48
2021/09/16 08:41:09;;;;;;;9.67;8.77;;;18.80;99.90;;;;;;5067479;28;20646;-49
2021/09/16 08:43:36;;;;;;;10.10;9.20;;;18.70;99.90;;;;;;5066921;28;20538;-51
2021/09/16 08:46:03;;;;;;;11.50;8.60;;;18.60;99.90;;;;;;5064777;28;20204;-50
2021/09/16 08:48:28;;;;;;;8.90;8.00;;;18.60;99.90;;;;;;5067385;28;20434;-50
2021/09/16 08:50:54;;;;;;;11.67;8.00;;;18.60;99.90;;;;;;5066728;28;20428;-48
2021/09/16 08:53:26;;;;;;;9.90;9.00;;;18.60;99.90;;;;;;5069151;28;20599;-47
2021/09/16 08:55:53;;;;;;;9.57;8.57;;;18.60;99.90;;;;;;5068320;28;20193;-50
2021/09/16 08:58:22;;;;;;;9.53;8.63;;;18.60;99.90;;;;;;5068385;28;20454;-50
2021/09/16 09:00:48;;;;;;;11.13;9.47;;;18.60;99.90;;;;;;5068419;28;20427;-52
2021/09/16 09:03:14;;;;;;;9.17;8.10;;;18.60;99.90;;;;;;5068063;28;20442;-50
2021/09/16 09:05:43;;;;;;;10.00;9.00;;;18.60;99.90;;;;;;5065441;28;20205;-54
2021/09/16 09:08:09;;;;;;;10.40;8.73;;;18.70;99.90;;;;;;5068123;28;20631;-53
2021/09/16 09:10:44;;;;;;;11.73;9.37;;;18.70;99.90;;;;;;5081588;28;20422;-52
2021/09/16 09:13:28;;;;;;;9.90;9.00;;;18.90;99.90;;;;;;5089181;28;20422;-49
2021/09/16 09:16:08;;;;;;;9.13;8.33;;;19.10;99.90;;;;;;5066466;28;20434;-52
2021/09/16 09:18:48;;;;;;;9.40;8.40;;;19.10;99.90;;;;;;5089425;28;20429;-48
2021/09/16 09:21:16;;;;;;;8.43;7.63;;;19.30;99.90;;;;;;5087718;28;20472;-54
2021/09/16 09:23:51;;;;;;;8.40;7.60;;;19.30;99.90;;;;;;5075881;28;20439;-51
2021/09/16 09:26:30;;;;;;;8.30;7.60;;;19.30;99.90;;;;;;5069385;28;20466;-48
2021/09/16 09:29:07;;;;;;;8.80;8.00;;;19.30;99.90;;;;;;5074029;28;20439;-49
2021/09/16 09:31:39;;;;;;;8.13;7.30;;;19.30;99.90;;;;;;5063508;28;20462;-50
2021/09/16 09:34:30;;;;;;;8.13;7.33;;;19.40;99.90;;;;;;5067025;28;20471;-49
2021/09/16 09:37:35;;;;;;;7.30;6.30;;;19.60;99.90;;;;;;5070651;28;20533;-51
2021/09/16 09:40:00;;;;;;;8.10;5.77;;;19.70;99.90;;;;;;4994040;28;20430;-53
2021/09/16 09:42:28;;;;;;;6.20;5.60;;;19.60;99.90;;;;;;5056194;28;20425;-46
2021/09/16 09:45:13;;;;;;;6.33;5.80;;;19.40;99.90;;;;;;5061883;28;20618;-53
2021/09/16 09:47:42;;;;;;;6.20;5.60;;;19.30;99.90;;;;;;5083087;28;20494;-55
2021/09/16 09:50:24;;;;;;;6.20;5.60;;;19.10;99.90;;;;;;5089035;28;20505;-54
2021/09/16 09:52:51;;;;;;;5.47;4.90;;;19.00;99.90;;;;;;5089520;28;20464;-51
2021/09/16 09:55:20;;;;;;;6.73;6.10;;;18.80;99.90;;;;;;5074544;28;20506;-48
2021/09/16 09:57:46;;;;;;;6.67;5.90;;;18.80;99.90;;;;;;5068658;28;20545;-53
2021/09/16 10:00:16;;;;;;;6.70;6.10;;;18.70;99.90;;;;;;5069147;28;20418;-50
2021/09/16 10:02:55;;;;;;;7.40;6.70;;;18.70;99.90;;;;;;5074211;28;20430;-51
2021/09/16 10:05:30;;;;;;;7.03;6.10;;;18.90;99.90;;;;;;5077588;28;21289;-55
2021/09/16 10:08:06;;;;;;;6.43;5.63;;;18.90;99.90;;;;;;5071176;28;20505;-51
2021/09/16 10:10:35;;;;;;;6.10;5.53;;;18.90;99.90;;;;;;5068300;28;20419;-51
2021/09/16 10:13:01;;;;;;;9.47;6.30;;;19.00;99.90;;;;;;5060396;28;21184;-53
2021/09/16 10:15:27;;;;;;;7.60;5.67;;;19.10;99.90;;;;;;5068339;28;20471;-52
2021/09/16 10:17:53;;;;;;;5.83;5.20;;;19.30;99.90;;;;;;5072545;28;20465;-48
2021/09/16 10:20:21;;;;;;;6.80;6.10;;;19.40;99.90;;;;;;5078330;28;20197;-54
2021/09/16 10:23:08;;;;;;;6.70;5.07;;;19.30;99.90;;;;;;5060679;28;20414;-49
2021/09/16 10:25:41;;;;;;;6.70;6.00;;;19.30;99.90;;;;;;5070585;28;20956;-49
2021/09/16 10:28:07;;;;;;;6.20;5.60;;;19.40;99.90;;;;;;5079240;28;20514;-53
2021/09/16 10:30:39;;;;;;;7.57;5.37;;;19.60;99.90;;;;;;5074738;28;20880;-54
2021/09/16 10:33:27;;;;;;;5.13;4.63;;;19.90;99.90;;;;;;5056096;28;20408;-51
2021/09/16 10:35:59;;;;;;;6.00;5.40;;;20.00;99.90;;;;;;5071738;28;20411;-49
2021/09/16 10:38:37;;;;;;;6.27;5.67;;;20.10;99.90;;;;;;5068405;28;21186;-49
2021/09/16 10:41:25;;;;;;;6.73;5.83;;;19.80;99.90;;;;;;5067192;28;20420;-50
2021/09/16 10:44:03;;;;;;;8.90;6.30;;;19.80;99.90;;;;;;5070652;28;20489;-51
2021/09/16 10:46:37;;;;;;;8.17;5.87;;;19.60;99.90;;;;;;5078731;28;20455;-51
2021/09/16 10:49:24;;;;;;;6.57;5.80;;;19.60;99.90;;;;;;5080839;28;20452;-52
2021/09/16 10:51:54;;;;;;;6.40;5.80;;;19.80;99.90;;;;;;5067771;28;20492;-50
2021/09/16 10:54:22;;;;;;;6.00;5.40;;;19.80;99.90;;;;;;5071652;28;21183;-57
2021/09/16 10:57:14;;;;;;;8.87;6.00;;;19.80;99.90;;;;;;5077137;28;20422;-54
2021/09/16 10:59:51;;;;;;;5.97;5.47;;;19.80;99.90;;;;;;5064626;28;20404;-52
2021/09/16 11:02:39;;;;;;;7.20;5.63;;;19.90;99.90;;;;;;5073483;28;20896;-51
2021/09/16 11:05:18;;;;;;;5.97;5.40;;;20.20;99.90;;;;;;5074384;28;20470;-52
2021/09/16 11:07:54;;;;;;;5.87;5.30;;;20.40;99.90;;;;;;5080064;28;20833;-51
2021/09/16 11:10:20;;;;;;;6.97;6.20;;;20.50;99.90;;;;;;5072074;28;20410;-47
2021/09/16 11:13:05;;;;;;;5.83;5.33;;;20.50;99.90;;;;;;5072571;28;21237;-51
2021/09/16 11:15:40;;;;;;;6.63;5.30;;;20.40;99.90;;;;;;5071165;28;20423;-51
2021/09/16 11:18:14;;;;;;;5.57;5.07;;;20.40;99.90;;;;;;5083400;28;20422;-48
2021/09/16 11:20:41;;;;;;;5.20;4.70;;;20.50;99.90;;;;;;5070845;28;20431;-51
2021/09/16 11:23:08;;;;;;;6.37;5.73;;;20.60;99.90;;;;;;5068783;28;20803;-52
2021/09/16 11:25:39;;;;;;;7.43;5.80;;;20.70;99.90;;;;;;5070171;28;20555;-54
2021/09/16 11:28:06;;;;;;;6.17;5.57;;;20.60;99.90;;;;;;5063259;28;20506;-49
2021/09/16 11:30:33;;;;;;;7.20;6.17;;;20.20;99.90;;;;;;5066638;28;20423;-51
2021/09/16 11:33:04;;;;;;;5.97;5.47;;;20.10;99.90;;;;;;5073295;28;20428;-51
2021/09/16 11:35:30;;;;;;;6.17;5.57;;;20.20;99.90;;;;;;5072048;28;20446;-51
2021/09/16 11:37:56;;;;;;;5.97;5.37;;;20.20;99.90;;;;;;5072886;28;20423;-51
2021/09/16 11:40:29;;;;;;;9.90;5.80;;;20.20;99.90;;;;;;5075716;28;20181;-53
2021/09/16 11:42:57;;;;;;;5.57;5.17;;;20.10;99.90;;;;;;5073101;28;20819;-49
2021/09/16 11:45:28;;;;;;;6.00;5.50;;;20.00;99.90;;;;;;5076904;28;20462;-49
2021/09/16 11:48:18;;;;;;;6.27;5.13;;;20.00;99.90;;;;;;5078187;28;20793;-50
2021/09/16 11:50:46;;;;;;;5.63;5.20;;;19.90;99.90;;;;;;5072372;28;20500;-51
2021/09/16 11:53:23;;;;;;;7.37;5.37;;;19.80;99.90;;;;;;5080510;28;20412;-49
2021/09/16 11:55:52;;;;;;;5.90;5.40;;;19.80;99.90;;;;;;5076143;28;20929;-54
2021/09/16 11:58:20;;;;;;;7.80;7.10;;;20.00;99.90;;;;;;5072840;28;20463;-49
2021/09/16 12:00:49;;;;;;;6.03;5.53;;;20.10;99.90;;;;;;5070946;28;20439;-52
2021/09/16 12:03:39;;;;;;;7.50;6.90;;;20.30;99.90;;;;;;5073407;28;20526;-51
2021/09/16 12:06:11;;;;;;;7.47;6.87;;;20.50;99.90;;;;;;5075879;28;20456;-53
2021/09/16 12:08:45;;;;;;;7.90;7.20;;;20.40;99.90;;;;;;5061622;28;20782;-51
2021/09/16 12:11:18;;;;;;;8.23;7.43;;;20.30;99.90;;;;;;5068872;28;20494;-50
2021/09/16 12:13:57;;;;;;;8.30;7.50;;;20.00;99.90;;;;;;5069199;28;20635;-48
2021/09/16 12:16:41;;;;;;;7.90;7.20;;;19.70;99.90;;;;;;5069266;28;20418;-47
2021/09/16 12:19:11;;;;;;;8.33;7.40;;;19.50;99.90;;;;;;5068134;28;20914;-53
2021/09/16 12:21:37;;;;;;;9.80;8.90;;;19.30;99.90;;;;;;5066611;28;20423;-52
2021/09/16 12:24:06;;;;;;;9.40;8.47;;;19.10;99.90;;;;;;5071282;28;20423;-50
2021/09/16 12:26:36;;;;;;;12.57;8.50;;;18.90;99.90;;;;;;5073375;28;20206;-53
2021/09/16 12:29:03;;;;;;;8.80;8.00;;;18.80;99.90;;;;;;5075533;28;20425;-48
2021/09/16 12:31:32;;;;;;;9.20;8.10;;;18.80;99.90;;;;;;5073134;28;20427;-51
2021/09/16 12:34:06;;;;;;;8.33;6.97;;;18.90;99.90;;;;;;5065009;28;20432;-48
2021/09/16 12:36:33;;;;;;;9.37;8.47;;;19.00;99.90;;;;;;5072253;28;20486;-49